»·PEaware :: SKW3655 KSEA-KPSC

SKW3655 :: KSEA-KPSC

FLIGHT INFORMATION

Flight Status: Arrived
Operator:
SkyWest Airlines
More flights by this operator :: More flights under this callsign
Pilot: Andrew G. (414)
Aircraft: CANADAIR CL-600 CRJ-700
(CRJ7)
More flights by this aircraft type
Origin: KSEA Seattle-Tacoma Intl
United States
Destination: KPSC Tri-Cities
United States
More flights between these airports :: More routes between these airports
Route: MONTN1 SEA V2 ELN V187 PSC
File this flight plan on PilotEdge
Remarks: RMK / SIMBRIEF
Altitude:
(Current/Filed)
23,000ft
Speed:
(Current/Filed)
415kts
Departed: 19-Sep-21 01:44 AM
Arrived: 19-Sep-21 02:25 AM
Distance/Time
Traveled:
149nm/0:41
Distance/Time
To Go:
Arrived

Flight Plot

Page will automatically refresh every two minutes.

Flight plan parsing failed; only flown route is shown


Map Options




Map Legend


Flown Route
Filed Route
Departure Airport
Arrival Airport
Navaid (VOR, NDB)
Fix

Horizontal Profiles

Position Reports

Time Latitude Longitude Heading Altitude Ground
Speed
19-Sep-21 01:29 47.441683 -122.303045 299 383ft 0kts
19-Sep-21 01:30 47.441683 -122.303045 299 383ft 0kts
19-Sep-21 01:31 47.441547 -122.302696 299 383ft 2kts
19-Sep-21 01:31 47.441346 -122.302179 299 382ft 0kts
19-Sep-21 01:32 47.441346 -122.302179 299 382ft 0kts
19-Sep-21 01:34 47.441346 -122.302179 299 382ft 0kts
19-Sep-21 01:35 47.441346 -122.302179 299 382ft 0kts
19-Sep-21 01:36 47.441346 -122.302180 299 382ft 0kts
19-Sep-21 01:36 47.440803 -122.302887 210 382ft 8kts
19-Sep-21 01:37 47.440827 -122.306369 1 382ft 12kts
19-Sep-21 01:38 47.444631 -122.306317 0 386ft 15kts
19-Sep-21 01:40 47.450135 -122.306297 0 393ft 18kts
19-Sep-21 01:41 47.455029 -122.306217 0 407ft 15kts
19-Sep-21 01:41 47.458200 -122.306204 358 416ft 11kts
19-Sep-21 01:42 47.462554 -122.306155 0 428ft 18kts
19-Sep-21 01:43 47.459901 -122.307806 180 420ft 87kts
19-Sep-21 01:44 47.417432 -122.308043 181 2863ft 172kts
19-Sep-21 01:45 47.363075 -122.309026 184 5255ft 222kts
19-Sep-21 01:46 47.314869 -122.256344 93 7817ft 288kts
19-Sep-21 01:47 47.320979 -122.136067 67 10753ft 306kts
19-Sep-21 01:48 47.356598 -122.014812 80 12867ft 354kts
19-Sep-21 01:49 47.342727 -121.866097 111 15743ft 378kts
19-Sep-21 01:50 47.306896 -121.716494 111 18674ft 395kts
19-Sep-21 01:51 47.273103 -121.559781 109 21475ft 410kts
19-Sep-21 01:52 47.236639 -121.394987 110 22491ft 436kts
19-Sep-21 01:53 47.198913 -121.225282 110 22504ft 432kts
19-Sep-21 01:54 47.161268 -121.058849 110 22519ft 437kts
19-Sep-21 01:55 47.123318 -120.889346 109 22578ft 431kts
19-Sep-21 01:56 47.085012 -120.721894 110 22573ft 431kts
19-Sep-21 01:57 47.046700 -120.554538 110 22596ft 434kts
19-Sep-21 01:58 47.008661 -120.386903 109 22591ft 436kts
19-Sep-21 01:59 46.973666 -120.217629 108 22603ft 439kts
19-Sep-21 02:00 46.937275 -120.046256 108 22586ft 439kts
19-Sep-21 02:01 46.890982 -119.883279 129 22598ft 432kts
19-Sep-21 02:02 46.809566 -119.757276 145 22581ft 426kts
19-Sep-21 02:03 46.715911 -119.649583 143 22592ft 430kts
19-Sep-21 02:04 46.623980 -119.537961 143 22601ft 426kts
19-Sep-21 02:05 46.535923 -119.440247 164 20950ft 385kts
19-Sep-21 02:06 46.469829 -119.331873 89 18985ft 397kts
19-Sep-21 02:07 46.499119 -119.187507 73 17038ft 364kts
19-Sep-21 02:08 46.483340 -119.053183 146 14178ft 352kts
19-Sep-21 02:09 46.407868 -119.081603 254 11303ft 304kts
19-Sep-21 02:10 46.437732 -119.185061 301 9684ft 273kts
19-Sep-21 02:11 46.476750 -119.271435 299 8663ft 240kts
19-Sep-21 02:12 46.525010 -119.252016 93 7923ft 233kts
19-Sep-21 02:13 46.482737 -119.203254 122 7373ft 214kts
19-Sep-21 02:14 46.513433 -119.140463 59 7009ft 230kts
19-Sep-21 02:15 46.499090 -119.052133 104 6560ft 252kts
19-Sep-21 02:16 46.478896 -118.958513 121 5802ft 234kts
19-Sep-21 02:17 46.448023 -118.879854 139 4966ft 207kts
19-Sep-21 02:18 46.408799 -118.900995 237 3931ft 167kts
19-Sep-21 02:19 46.379759 -118.951492 226 2873ft 158kts
19-Sep-21 02:20 46.351094 -118.992979 225 2556ft 140kts
19-Sep-21 02:21 46.323691 -119.033533 226 2099ft 142kts
19-Sep-21 02:22 46.299274 -119.070301 221 1339ft 117kts
19-Sep-21 02:23 46.273105 -119.108167 228 530ft 137kts
19-Sep-21 02:24 46.257000 -119.131955 225 416ft 16kts

Navigation Log

Ident Type
Flight plan parsing failed, navigation log unavailable